Time;durP1;ratioP1;P1;durP2;ratioP2;P2;SDS_P1;SDS_P2;PMS_P1;PMS_P2;Temp;Humidity;BMP_temperature;BMP_pressure;BME280_temperature;BME280_humidity;BME280_pressure;Samples;Min_cycle;Max_cycle;Signal;HPM_P1;HPM_P2
2023/06/14 00:00:48;;;;;;;;;;;23.10;39.60;;;;;;5001254;28;19922;-62
2023/06/14 00:03:17;;;;;;;;;;;23.10;39.60;;;;;;5005590;28;20368;-62
2023/06/14 00:05:46;;;;;;;;;;;23.10;39.60;;;;;;5006888;28;19953;-64
2023/06/14 00:08:13;;;;;;;;;;;23.00;39.60;;;;;;5004096;28;20253;-62
2023/06/14 00:10:41;;;;;;;;;;;23.10;39.70;;;;;;5004733;28;19928;-63
2023/06/14 00:13:09;;;;;;;;;;;23.10;39.70;;;;;;5004219;28;20224;-60
2023/06/14 00:15:36;;;;;;;;;;;23.10;40.30;;;;;;5004219;28;19925;-63
2023/06/14 00:18:03;;;;;;;;;;;23.10;39.70;;;;;;5006735;28;19921;-62
2023/06/14 00:20:30;;;;;;;;;;;23.00;39.70;;;;;;5006686;28;20237;-63
2023/06/14 00:22:57;;;;;;;;;;;23.10;39.80;;;;;;5009096;28;19925;-61
2023/06/14 00:25:25;;;;;;;;;;;23.10;39.80;;;;;;5003999;28;19922;-62
2023/06/14 00:27:52;;;;;;;;;;;23.10;39.80;;;;;;5006571;28;19929;-63
2023/06/14 00:30:20;;;;;;;;;;;23.10;39.90;;;;;;5001641;28;19930;-62
2023/06/14 00:32:47;;;;;;;;;;;23.00;39.80;;;;;;5002717;28;19929;-63
2023/06/14 00:35:15;;;;;;;;;;;23.00;39.80;;;;;;4986682;28;20135;-62
2023/06/14 00:37:42;;;;;;;;;;;23.10;39.90;;;;;;5004472;28;19933;-60
2023/06/14 00:40:09;;;;;;;;;;;23.10;40.00;;;;;;5007016;28;19929;-62
2023/06/14 00:42:36;;;;;;;;;;;23.10;40.00;;;;;;5021223;28;19968;-62
2023/06/14 00:45:03;;;;;;;;;;;23.00;40.00;;;;;;5004118;28;19933;-59
2023/06/14 00:47:31;;;;;;;;;;;23.10;40.10;;;;;;5003947;28;19925;-62
2023/06/14 00:49:57;;;;;;;;;;;23.00;40.00;;;;;;5004103;28;19929;-63
2023/06/14 00:52:25;;;;;;;;;;;23.10;40.10;;;;;;5003556;28;19921;-62
2023/06/14 00:54:51;;;;;;;;;;;23.00;40.10;;;;;;5001417;28;20280;-62
2023/06/14 00:57:18;;;;;;;;;;;23.00;40.70;;;;;;5008240;28;19922;-63
2023/06/14 00:59:45;;;;;;;;;;;23.00;40.10;;;;;;5004083;28;19925;-63
2023/06/14 01:02:12;;;;;;;;;;;23.00;40.10;;;;;;5003610;28;20394;-63
2023/06/14 01:04:41;;;;;;;;;;;23.00;40.20;;;;;;5006029;28;19948;-62
2023/06/14 01:07:13;;;;;;;;;;;23.00;40.20;;;;;;5003008;28;19953;-62
2023/06/14 01:09:47;;;;;;;;;;;23.00;40.20;;;;;;5002959;28;19934;-62
2023/06/14 01:12:14;;;;;;;;;;;23.00;40.20;;;;;;5002953;28;19933;-63
2023/06/14 01:14:41;;;;;;;;;;;23.00;40.20;;;;;;5005585;28;19921;-62
2023/06/14 01:17:15;;;;;;;;;;;23.00;40.30;;;;;;5002009;28;19922;-61
2023/06/14 01:19:44;;;;;;;;;;;23.00;40.30;;;;;;5004868;28;19925;-62
2023/06/14 01:22:11;;;;;;;;;;;23.00;40.30;;;;;;5006504;28;19983;-63
2023/06/14 01:24:44;;;;;;;;;;;23.00;40.30;;;;;;5001791;28;19929;-63
2023/06/14 01:27:11;;;;;;;;;;;23.00;40.30;;;;;;5017732;28;19925;-62
2023/06/14 01:29:38;;;;;;;;;;;23.00;40.30;;;;;;5003068;28;20011;-62
2023/06/14 01:32:05;;;;;;;;;;;23.00;40.40;;;;;;5009074;28;19921;-62
2023/06/14 01:34:32;;;;;;;;;;;23.00;40.40;;;;;;5006469;28;19976;-62
2023/06/14 01:36:59;;;;;;;;;;;23.00;40.40;;;;;;5013068;28;19922;-62
2023/06/14 01:39:25;;;;;;;;;;;23.00;40.40;;;;;;5006413;28;19921;-63
2023/06/14 01:41:53;;;;;;;;;;;23.00;40.40;;;;;;5021855;28;19921;-63
2023/06/14 01:44:20;;;;;;;;;;;23.00;40.40;;;;;;5000425;28;20289;-63
2023/06/14 01:46:47;;;;;;;;;;;23.00;40.50;;;;;;5007402;28;19965;-59
2023/06/14 01:49:14;;;;;;;;;;;23.00;40.50;;;;;;5001717;28;19933;-62
2023/06/14 01:51:41;;;;;;;;;;;23.00;40.50;;;;;;5019320;28;20008;-63
2023/06/14 01:54:08;;;;;;;;;;;23.00;40.50;;;;;;5001645;28;19922;-60
2023/06/14 01:56:34;;;;;;;;;;;23.00;40.60;;;;;;5006735;28;19925;-62
2023/06/14 01:59:03;;;;;;;;;;;22.90;40.50;;;;;;5010033;28;19940;-63
2023/06/14 02:01:30;;;;;;;;;;;22.90;40.50;;;;;;4999673;28;19922;-60
2023/06/14 02:03:57;;;;;;;;;;;23.00;40.60;;;;;;5008451;28;20240;-62
2023/06/14 02:06:24;;;;;;;;;;;22.90;40.60;;;;;;5010651;28;19944;-61
2023/06/14 02:08:51;;;;;;;;;;;22.90;40.60;;;;;;5007108;28;19921;-62
2023/06/14 02:11:17;;;;;;;;;;;22.90;40.60;;;;;;5005434;28;19926;-60
2023/06/14 02:13:44;;;;;;;;;;;22.90;40.60;;;;;;5011514;28;19975;-61
2023/06/14 02:16:12;;;;;;;;;;;22.90;40.60;;;;;;5010560;28;19967;-62
2023/06/14 02:18:39;;;;;;;;;;;22.90;40.60;;;;;;5003340;28;19967;-62
2023/06/14 02:21:06;;;;;;;;;;;22.90;40.60;;;;;;5010794;28;19921;-62
2023/06/14 02:23:33;;;;;;;;;;;22.90;40.60;;;;;;5005445;28;19922;-62
2023/06/14 02:26:00;;;;;;;;;;;22.90;40.70;;;;;;5002124;28;19921;-62
2023/06/14 02:28:26;;;;;;;;;;;22.90;40.80;;;;;;5006519;28;20020;-62
2023/06/14 02:30:53;;;;;;;;;;;22.90;40.80;;;;;;5003896;28;19968;-62
2023/06/14 02:33:21;;;;;;;;;;;22.90;40.80;;;;;;5012169;28;19976;-62
2023/06/14 02:35:48;;;;;;;;;;;22.90;40.80;;;;;;5007728;28;20295;-63
2023/06/14 02:38:15;;;;;;;;;;;22.90;40.80;;;;;;5007205;28;20434;-62
2023/06/14 02:40:42;;;;;;;;;;;22.90;40.90;;;;;;5000977;28;19929;-60
2023/06/14 02:43:09;;;;;;;;;;;22.90;40.90;;;;;;4999971;28;20368;-61
2023/06/14 02:45:36;;;;;;;;;;;22.90;40.90;;;;;;5002255;28;19921;-62
2023/06/14 02:48:03;;;;;;;;;;;22.90;41.00;;;;;;5002305;28;19972;-61
2023/06/14 02:50:32;;;;;;;;;;;22.90;41.00;;;;;;5006944;28;19948;-61
2023/06/14 02:52:59;;;;;;;;;;;22.90;41.00;;;;;;5002390;28;19925;-60
2023/06/14 02:55:26;;;;;;;;;;;22.90;41.00;;;;;;5001984;28;19963;-63
2023/06/14 02:57:53;;;;;;;;;;;22.90;41.00;;;;;;5010623;28;19932;-62
2023/06/14 03:00:20;;;;;;;;;;;22.90;41.10;;;;;;5001315;28;20033;-63
2023/06/14 03:02:47;;;;;;;;;;;22.90;41.10;;;;;;5002565;28;19922;-62
2023/06/14 03:05:14;;;;;;;;;;;22.90;41.20;;;;;;5009955;28;20380;-62
2023/06/14 03:07:44;;;;;;;;;;;22.90;41.20;;;;;;5005437;28;19933;-59
2023/06/14 03:10:12;;;;;;;;;;;22.90;41.20;;;;;;5007262;28;20021;-62
2023/06/14 03:12:39;;;;;;;;;;;22.90;41.20;;;;;;5002342;28;19921;-63
2023/06/14 03:15:07;;;;;;;;;;;22.90;41.20;;;;;;5008771;28;19922;-64
2023/06/14 03:17:35;;;;;;;;;;;22.90;41.30;;;;;;5009554;28;19964;-62
2023/06/14 03:20:02;;;;;;;;;;;22.90;41.30;;;;;;5011372;28;19922;-63
2023/06/14 03:22:28;;;;;;;;;;;22.90;41.30;;;;;;5002768;28;19922;-62
2023/06/14 03:24:57;;;;;;;;;;;22.80;41.20;;;;;;4998691;28;20016;-62
2023/06/14 03:27:23;;;;;;;;;;;22.80;41.20;;;;;;5009951;28;19971;-63
2023/06/14 03:29:51;;;;;;;;;;;22.90;41.40;;;;;;5000084;28;20368;-62
2023/06/14 03:32:17;;;;;;;;;;;22.80;41.20;;;;;;5019996;28;19925;-61
2023/06/14 03:34:45;;;;;;;;;;;22.80;41.30;;;;;;5018011;28;19976;-61
2023/06/14 03:37:11;;;;;;;;;;;22.80;41.30;;;;;;5010466;28;20016;-62
2023/06/14 03:39:45;;;;;;;;;;;22.80;41.40;;;;;;5007314;28;19984;-62
2023/06/14 03:42:14;;;;;;;;;;;22.80;41.40;;;;;;5009845;28;19925;-62
2023/06/14 03:44:41;;;;;;;;;;;22.80;41.50;;;;;;5009126;28;19967;-62
2023/06/14 03:47:07;;;;;;;;;;;22.80;41.50;;;;;;5008670;28;19936;-62
2023/06/14 03:49:34;;;;;;;;;;;22.80;41.50;;;;;;5008746;28;19948;-62
2023/06/14 03:52:02;;;;;;;;;;;22.80;41.50;;;;;;5010307;28;20011;-61
2023/06/14 03:54:29;;;;;;;;;;;22.80;41.60;;;;;;5004806;28;19943;-63
2023/06/14 03:56:56;;;;;;;;;;;22.80;41.60;;;;;;5010974;28;19925;-62
2023/06/14 03:59:25;;;;;;;;;;;22.80;41.60;;;;;;5000549;28;20639;-62
2023/06/14 04:01:53;;;;;;;;;;;22.80;41.60;;;;;;5001540;28;19921;-63
2023/06/14 04:04:21;;;;;;;;;;;22.80;41.70;;;;;;5008891;28;20427;-63
2023/06/14 04:06:48;;;;;;;;;;;22.80;41.70;;;;;;5006103;28;19971;-63
2023/06/14 04:09:14;;;;;;;;;;;22.80;41.70;;;;;;5008916;28;19930;-63
2023/06/14 04:11:41;;;;;;;;;;;22.80;41.80;;;;;;5003101;28;19928;-61
2023/06/14 04:14:08;;;;;;;;;;;22.80;41.80;;;;;;5002333;28;19921;-61
2023/06/14 04:16:36;;;;;;;;;;;22.80;41.90;;;;;;4997407;28;20016;-63
2023/06/14 04:19:03;;;;;;;;;;;22.80;41.90;;;;;;5007532;28;19925;-62
2023/06/14 04:21:31;;;;;;;;;;;22.80;41.90;;;;;;5002306;28;19929;-63
2023/06/14 04:23:57;;;;;;;;;;;22.80;41.90;;;;;;5004525;28;19929;-63
2023/06/14 04:26:29;;;;;;;;;;;22.80;42.00;;;;;;5002693;28;19996;-63
2023/06/14 04:28:56;;;;;;;;;;;22.80;42.00;;;;;;5012773;28;19928;-63
2023/06/14 04:31:25;;;;;;;;;;;22.70;42.00;;;;;;5005583;28;19933;-61
2023/06/14 04:33:53;;;;;;;;;;;22.70;42.00;;;;;;5009008;28;19961;-62
2023/06/14 04:36:20;;;;;;;;;;;22.70;42.00;;;;;;5008798;28;19975;-63
2023/06/14 04:38:49;;;;;;;;;;;22.70;42.10;;;;;;5008366;28;19926;-58
2023/06/14 04:41:15;;;;;;;;;;;22.70;42.10;;;;;;5024451;28;19968;-61
2023/06/14 04:43:42;;;;;;;;;;;22.70;42.10;;;;;;5001003;28;19921;-63
2023/06/14 04:46:10;;;;;;;;;;;22.70;42.10;;;;;;4995088;28;19926;-62
2023/06/14 04:48:40;;;;;;;;;;;22.70;42.10;;;;;;5008189;28;20109;-59
2023/06/14 04:51:09;;;;;;;;;;;22.70;42.20;;;;;;5008112;28;19956;-62
2023/06/14 04:53:35;;;;;;;;;;;22.70;42.20;;;;;;5008896;28;19926;-62
2023/06/14 04:56:03;;;;;;;;;;;22.70;42.20;;;;;;5010173;28;19925;-59
2023/06/14 04:58:30;;;;;;;;;;;22.70;42.20;;;;;;5000640;28;19921;-62
2023/06/14 05:00:58;;;;;;;;;;;22.70;42.20;;;;;;4997469;28;19921;-63
2023/06/14 05:03:26;;;;;;;;;;;22.70;42.20;;;;;;5009817;28;19961;-62
2023/06/14 05:05:53;;;;;;;;;;;22.70;42.20;;;;;;5004795;28;19968;-62
2023/06/14 05:08:22;;;;;;;;;;;22.70;42.30;;;;;;5004903;28;19921;-59
2023/06/14 05:10:49;;;;;;;;;;;22.70;42.40;;;;;;5013313;28;19933;-63
2023/06/14 05:13:17;;;;;;;;;;;22.70;42.40;;;;;;5012078;28;19929;-60
2023/06/14 05:15:44;;;;;;;;;;;22.70;42.40;;;;;;5009647;28;20028;-62
2023/06/14 05:18:10;;;;;;;;;;;22.70;42.40;;;;;;5017417;28;19989;-62
2023/06/14 05:20:37;;;;;;;;;;;22.70;42.40;;;;;;5012182;28;19921;-62
2023/06/14 05:23:04;;;;;;;;;;;22.70;42.40;;;;;;5009228;28;19928;-60
2023/06/14 05:25:32;;;;;;;;;;;22.70;42.50;;;;;;5014093;28;20275;-59
2023/06/14 05:27:59;;;;;;;;;;;22.70;42.50;;;;;;5018216;28;19922;-63
2023/06/14 05:30:26;;;;;;;;;;;22.70;42.60;;;;;;5010074;28;19925;-61
2023/06/14 05:32:54;;;;;;;;;;;22.70;42.60;;;;;;5011086;28;19922;-60
2023/06/14 05:35:23;;;;;;;;;;;22.70;42.60;;;;;;5020423;28;20279;-62
2023/06/14 05:37:50;;;;;;;;;;;22.70;42.60;;;;;;5011535;28;19980;-61
2023/06/14 05:40:18;;;;;;;;;;;22.70;42.60;;;;;;5014137;28;19925;-61
2023/06/14 05:42:46;;;;;;;;;;;22.70;42.70;;;;;;5012951;28;19922;-62
2023/06/14 05:45:14;;;;;;;;;;;22.70;42.70;;;;;;5021002;28;20318;-62
2023/06/14 05:47:41;;;;;;;;;;;22.70;42.70;;;;;;5032001;28;19980;-63
2023/06/14 05:50:08;;;;;;;;;;;22.70;42.80;;;;;;5010987;28;19924;-63
2023/06/14 05:52:35;;;;;;;;;;;22.70;42.80;;;;;;5010340;28;19922;-63
2023/06/14 05:55:02;;;;;;;;;;;22.70;42.80;;;;;;5007110;28;20359;-62
2023/06/14 05:57:29;;;;;;;;;;;22.70;42.80;;;;;;5017194;28;19989;-62
2023/06/14 05:59:57;;;;;;;;;;;22.70;42.80;;;;;;5018664;28;19927;-62
2023/06/14 06:02:23;;;;;;;;;;;22.80;42.80;;;;;;5017570;28;20356;-62
2023/06/14 06:04:50;;;;;;;;;;;22.70;42.80;;;;;;5011820;28;19928;-61
2023/06/14 06:07:17;;;;;;;;;;;22.80;42.90;;;;;;5015250;28;19921;-62
2023/06/14 06:09:44;;;;;;;;;;;22.80;42.90;;;;;;5013861;28;19922;-64
2023/06/14 06:12:11;;;;;;;;;;;22.80;42.90;;;;;;5011579;28;19921;-63
2023/06/14 06:14:38;;;;;;;;;;;22.80;42.90;;;;;;5006367;28;19925;-60
2023/06/14 06:17:07;;;;;;;;;;;22.70;42.90;;;;;;4988188;28;20312;-61
2023/06/14 06:19:33;;;;;;;;;;;22.80;42.80;;;;;;5002060;28;19941;-60
2023/06/14 06:22:00;;;;;;;;;;;22.70;42.90;;;;;;5010745;28;20234;-62
2023/06/14 06:24:27;;;;;;;;;;;22.80;42.90;;;;;;5003947;28;19976;-64
2023/06/14 06:26:54;;;;;;;;;;;22.80;42.80;;;;;;5005173;28;19925;-62
2023/06/14 06:29:20;;;;;;;;;;;22.80;42.80;;;;;;5007962;28;19933;-60
2023/06/14 06:31:47;;;;;;;;;;;22.80;42.70;;;;;;5008837;28;19928;-64
2023/06/14 06:34:15;;;;;;;;;;;22.80;42.70;;;;;;5007849;28;20065;-62
2023/06/14 06:36:42;;;;;;;;;;;22.80;42.70;;;;;;5013342;28;20405;-62
2023/06/14 06:39:10;;;;;;;;;;;22.80;42.60;;;;;;5011909;28;19949;-61
2023/06/14 06:41:37;;;;;;;;;;;22.80;42.60;;;;;;5010434;28;19921;-64
2023/06/14 06:44:05;;;;;;;;;;;22.80;42.70;;;;;;5012068;28;19983;-64
2023/06/14 06:46:32;;;;;;;;;;;22.80;43.20;;;;;;5029084;28;19956;-64
2023/06/14 06:48:58;;;;;;;;;;;22.80;42.60;;;;;;5013723;28;19925;-62
2023/06/14 06:51:27;;;;;;;;;;;22.80;42.60;;;;;;5011262;28;19922;-61
2023/06/14 06:53:54;;;;;;;;;;;22.80;42.60;;;;;;5009467;28;20304;-63
2023/06/14 06:56:22;;;;;;;;;;;22.80;42.50;;;;;;5014103;28;19921;-61
2023/06/14 06:58:49;;;;;;;;;;;22.80;42.50;;;;;;5028655;28;19929;-62
2023/06/14 07:01:16;;;;;;;;;;;22.90;42.60;;;;;;5008506;28;19968;-63
2023/06/14 07:03:43;;;;;;;;;;;22.90;43.20;;;;;;5009638;28;19921;-62
2023/06/14 07:06:11;;;;;;;;;;;22.90;42.50;;;;;;5008550;28;20009;-62
2023/06/14 07:08:39;;;;;;;;;;;22.90;43.10;;;;;;5011473;28;19921;-62
2023/06/14 07:11:07;;;;;;;;;;;22.90;42.40;;;;;;5005491;28;19927;-59
2023/06/14 07:13:34;;;;;;;;;;;22.90;42.40;;;;;;5007070;28;19925;-59
2023/06/14 07:16:01;;;;;;;;;;;22.90;42.30;;;;;;5007509;28;19925;-59
2023/06/14 07:18:28;;;;;;;;;;;22.90;42.30;;;;;;5006575;28;20384;-61
2023/06/14 07:20:55;;;;;;;;;;;22.90;42.20;;;;;;5015068;28;19929;-61
2023/06/14 07:23:22;;;;;;;;;;;22.90;42.20;;;;;;5008146;28;19922;-62
2023/06/14 07:25:51;;;;;;;;;;;22.90;42.20;;;;;;5013737;28;19925;-60
2023/06/14 07:28:19;;;;;;;;;;;22.90;42.10;;;;;;5007576;28;19925;-61
2023/06/14 07:30:46;;;;;;;;;;;22.90;42.10;;;;;;5005898;28;19940;-60
2023/06/14 07:33:13;;;;;;;;;;;22.90;42.10;;;;;;5009749;28;19921;-62
2023/06/14 07:35:40;;;;;;;;;;;22.90;42.00;;;;;;5014524;28;20268;-60
2023/06/14 07:38:07;;;;;;;;;;;22.90;42.00;;;;;;5010039;28;19961;-62
2023/06/14 07:40:34;;;;;;;;;;;22.90;41.90;;;;;;5010290;28;19952;-60
2023/06/14 07:43:02;;;;;;;;;;;22.90;41.90;;;;;;5018584;28;19928;-58
2023/06/14 07:45:29;;;;;;;;;;;22.90;41.80;;;;;;5009970;28;20379;-61
2023/06/14 07:47:56;;;;;;;;;;;22.90;41.80;;;;;;5011116;28;20029;-64
2023/06/14 07:50:23;;;;;;;;;;;22.90;41.80;;;;;;5004379;28;19987;-64
2023/06/14 07:52:50;;;;;;;;;;;22.90;41.80;;;;;;5013484;28;19926;-63
2023/06/14 07:55:17;;;;;;;;;;;22.90;41.80;;;;;;5012378;28;19925;-64
2023/06/14 07:57:44;;;;;;;;;;;22.90;41.80;;;;;;5015255;28;19925;-60
2023/06/14 08:00:15;;;;;;;;;;;23.00;41.80;;;;;;5008178;28;19921;-64
2023/06/14 08:02:42;;;;;;;;;;;23.00;41.80;;;;;;5007356;28;19921;-62
2023/06/14 08:05:10;;;;;;;;;;;23.00;41.80;;;;;;5016051;28;19921;-64
2023/06/14 08:07:36;;;;;;;;;;;23.00;41.70;;;;;;5009153;28;19933;-63
2023/06/14 08:10:03;;;;;;;;;;;23.00;41.70;;;;;;5006170;28;19940;-67
2023/06/14 08:12:30;;;;;;;;;;;23.10;41.80;;;;;;5009094;28;19963;-65
2023/06/14 08:14:57;;;;;;;;;;;23.10;41.70;;;;;;5020500;28;20283;-64
2023/06/14 08:17:25;;;;;;;;;;;23.10;41.70;;;;;;5015059;28;20184;-66
2023/06/14 08:19:52;;;;;;;;;;;23.10;41.70;;;;;;5011626;28;20077;-66
2023/06/14 08:22:19;;;;;;;;;;;23.10;41.70;;;;;;5008573;28;19949;-67
2023/06/14 08:24:46;;;;;;;;;;;23.10;41.60;;;;;;5014243;28;19926;-68
2023/06/14 08:27:13;;;;;;;;;;;23.10;41.60;;;;;;5016284;28;19922;-64
2023/06/14 08:29:41;;;;;;;;;;;23.10;41.60;;;;;;5010529;28;19925;-58
2023/06/14 08:32:08;;;;;;;;;;;23.20;41.70;;;;;;5028664;28;19936;-58
2023/06/14 08:34:36;;;;;;;;;;;23.20;41.60;;;;;;5017386;28;19921;-66
2023/06/14 08:37:03;;;;;;;;;;;23.20;41.60;;;;;;5011840;28;19928;-61
2023/06/14 08:39:30;;;;;;;;;;;23.20;41.60;;;;;;5011950;28;19969;-60
2023/06/14 08:41:56;;;;;;;;;;;23.20;41.50;;;;;;5007496;28;19932;-65
2023/06/14 08:44:23;;;;;;;;;;;23.20;41.50;;;;;;5009102;28;19980;-66
2023/06/14 08:46:51;;;;;;;;;;;23.20;41.50;;;;;;5015528;28;19933;-66
2023/06/14 08:49:18;;;;;;;;;;;23.20;41.50;;;;;;5011052;28;19975;-61
2023/06/14 08:51:47;;;;;;;;;;;23.20;41.50;;;;;;5009689;28;19928;-65
2023/06/14 08:54:15;;;;;;;;;;;23.20;41.40;;;;;;5011679;28;19936;-63
2023/06/14 08:56:43;;;;;;;;;;;23.20;41.40;;;;;;5015462;28;20024;-65
2023/06/14 08:59:11;;;;;;;;;;;23.20;41.40;;;;;;5019461;28;19935;-63
2023/06/14 09:01:38;;;;;;;;;;;23.20;41.40;;;;;;5008279;28;19926;-65
2023/06/14 09:04:06;;;;;;;;;;;23.30;41.50;;;;;;5008554;28;20008;-63
2023/06/14 09:06:33;;;;;;;;;;;23.30;41.50;;;;;;5013444;28;19921;-63
2023/06/14 09:09:04;;;;;;;;;;;23.30;41.40;;;;;;5007483;28;20384;-63
2023/06/14 09:11:31;;;;;;;;;;;23.30;41.40;;;;;;5010647;28;19934;-63
2023/06/14 09:13:58;;;;;;;;;;;23.30;41.40;;;;;;5026975;28;20105;-65
2023/06/14 09:16:24;;;;;;;;;;;23.30;41.40;;;;;;5008755;28;20012;-66
2023/06/14 09:18:51;;;;;;;;;;;23.20;41.30;;;;;;5010841;28;19928;-65
2023/06/14 09:21:18;;;;;;;;;;;23.30;41.40;;;;;;5008715;28;20327;-63
2023/06/14 09:23:45;;;;;;;;;;;23.30;41.40;;;;;;5008494;28;20020;-62
2023/06/14 09:26:15;;;;;;;;;;;23.30;41.40;;;;;;5011026;28;19929;-62
2023/06/14 09:28:42;;;;;;;;;;;23.30;41.40;;;;;;5008382;28;19922;-61
2023/06/14 09:31:09;;;;;;;;;;;23.30;41.30;;;;;;5020250;28;19925;-61
2023/06/14 09:33:36;;;;;;;;;;;23.30;41.30;;;;;;5012986;28;20004;-63
2023/06/14 09:36:04;;;;;;;;;;;23.20;41.20;;;;;;5025570;28;19928;-63
2023/06/14 09:38:30;;;;;;;;;;;23.30;41.20;;;;;;5009803;28;19929;-62
2023/06/14 09:40:58;;;;;;;;;;;23.30;41.20;;;;;;5017494;28;19921;-64
2023/06/14 09:43:27;;;;;;;;;;;23.30;41.20;;;;;;5028318;28;19933;-60
2023/06/14 09:45:54;;;;;;;;;;;23.30;41.20;;;;;;5008380;28;20019;-61
2023/06/14 09:48:21;;;;;;;;;;;23.30;41.20;;;;;;5004166;28;19931;-59
2023/06/14 09:50:48;;;;;;;;;;;23.20;41.20;;;;;;5011240;28;19921;-62
2023/06/14 09:53:15;;;;;;;;;;;23.30;41.20;;;;;;5015842;28;19921;-60
2023/06/14 09:55:42;;;;;;;;;;;23.30;41.20;;;;;;5010216;28;19926;-62
2023/06/14 09:58:09;;;;;;;;;;;23.30;41.20;;;;;;5007940;28;20416;-59
2023/06/14 10:00:38;;;;;;;;;;;23.30;41.20;;;;;;5028353;28;20033;-60
2023/06/14 10:03:07;;;;;;;;;;;23.30;41.20;;;;;;5010684;28;19991;-60
2023/06/14 10:05:35;;;;;;;;;;;23.30;41.20;;;;;;5012304;28;19921;-61
2023/06/14 10:08:04;;;;;;;;;;;23.30;41.10;;;;;;5006562;28;19921;-60
2023/06/14 10:10:31;;;;;;;;;;;23.30;41.10;;;;;;5013289;28;19937;-60
2023/06/14 10:12:57;;;;;;;;;;;23.30;41.10;;;;;;5016551;28;19933;-60
2023/06/14 10:15:25;;;;;;;;;;;23.30;41.10;;;;;;5012943;28;19922;-62
2023/06/14 10:17:55;;;;;;;;;;;23.30;41.10;;;;;;5026468;28;19932;-62
2023/06/14 10:20:24;;;;;;;;;;;23.30;41.10;;;;;;5021862;28;20020;-62
2023/06/14 10:22:52;;;;;;;;;;;23.30;41.10;;;;;;5011768;28;19933;-61
2023/06/14 10:25:29;;;;;;;;;;;23.30;41.10;;;;;;5010137;28;19929;-62
2023/06/14 10:28:03;;;;;;;;;;;23.30;41.10;;;;;;5010625;28;19928;-61
2023/06/14 10:30:30;;;;;;;;;;;23.30;40.90;;;;;;5006558;28;19979;-61
2023/06/14 10:33:07;;;;;;;;;;;23.30;40.90;;;;;;5005928;28;19928;-61
2023/06/14 10:35:34;;;;;;;;;;;23.30;40.70;;;;;;5009072;28;19922;-61
2023/06/14 10:38:07;;;;;;;;;;;23.30;40.60;;;;;;5021898;28;19944;-61
2023/06/14 10:40:34;;;;;;;;;;;23.30;40.60;;;;;;5003829;28;19925;-61
2023/06/14 10:43:01;;;;;;;;;;;23.30;40.60;;;;;;5008571;28;20115;-60
2023/06/14 10:45:27;;;;;;;;;;;23.30;40.50;;;;;;5006194;28;19925;-61
2023/06/14 10:47:54;;;;;;;;;;;23.30;40.60;;;;;;5002491;28;19922;-61
2023/06/14 10:50:28;;;;;;;;;;;23.20;40.40;;;;;;5015222;28;19925;-61
2023/06/14 10:52:55;;;;;;;;;;;23.30;40.60;;;;;;5012494;28;20024;-61
2023/06/14 10:55:22;;;;;;;;;;;23.30;40.60;;;;;;5026012;28;19965;-61
2023/06/14 10:57:51;;;;;;;;;;;23.20;40.50;;;;;;5017463;28;19926;-60
2023/06/14 11:00:22;;;;;;;;;;;23.30;40.60;;;;;;5011271;28;19922;-60
2023/06/14 11:02:54;;;;;;;;;;;23.30;40.60;;;;;;5010157;28;19968;-63
2023/06/14 11:05:24;;;;;;;;;;;23.30;40.70;;;;;;5009165;28;19932;-61
2023/06/14 11:07:56;;;;;;;;;;;23.30;40.60;;;;;;5013582;28;19968;-63
2023/06/14 11:10:26;;;;;;;;;;;23.20;40.60;;;;;;5008191;28;19921;-61
2023/06/14 11:12:53;;;;;;;;;;;23.30;40.60;;;;;;5014856;28;19922;-61
2023/06/14 11:15:19;;;;;;;;;;;23.20;40.60;;;;;;5005164;28;19937;-59
2023/06/14 11:17:53;;;;;;;;;;;23.30;40.70;;;;;;5022216;28;20003;-62
2023/06/14 11:20:20;;;;;;;;;;;23.30;40.70;;;;;;5010012;28;19921;-61
2023/06/14 11:22:48;;;;;;;;;;;23.30;40.70;;;;;;4997846;28;19929;-61
2023/06/14 11:25:16;;;;;;;;;;;23.30;40.60;;;;;;5009731;28;19932;-62
2023/06/14 11:27:43;;;;;;;;;;;23.30;40.60;;;;;;5009138;28;20263;-60
2023/06/14 11:30:10;;;;;;;;;;;23.30;40.60;;;;;;5001214;28;19922;-61
2023/06/14 11:32:37;;;;;;;;;;;23.30;40.60;;;;;;4998185;28;19928;-62
2023/06/14 11:35:04;;;;;;;;;;;23.30;40.60;;;;;;5002428;28;19921;-60
2023/06/14 11:37:32;;;;;;;;;;;23.40;40.70;;;;;;5010159;28;19933;-62
2023/06/14 11:39:59;;;;;;;;;;;23.40;40.70;;;;;;5014066;28;19925;-63
2023/06/14 11:42:28;;;;;;;;;;;23.30;40.60;;;;;;5009184;28;19929;-60
2023/06/14 11:44:55;;;;;;;;;;;23.40;40.60;;;;;;5015547;28;19921;-61
2023/06/14 11:47:22;;;;;;;;;;;23.30;40.60;;;;;;5016615;28;19930;-63
2023/06/14 11:49:49;;;;;;;;;;;23.40;40.60;;;;;;5017071;28;19975;-61
2023/06/14 11:52:16;;;;;;;;;;;23.40;40.60;;;;;;5030975;28;19922;-61
2023/06/14 11:54:42;;;;;;;;;;;23.40;40.60;;;;;;5009096;28;20360;-60
2023/06/14 11:57:10;;;;;;;;;;;23.40;40.60;;;;;;5017255;28;19996;-63
2023/06/14 11:59:40;;;;;;;;;;;23.40;40.60;;;;;;5008780;28;19925;-61
2023/06/14 12:02:07;;;;;;;;;;;23.40;40.60;;;;;;5008379;28;19926;-60
2023/06/14 12:04:34;;;;;;;;;;;23.40;40.60;;;;;;5011501;28;19921;-62
2023/06/14 12:07:11;;;;;;;;;;;23.40;40.60;;;;;;5013962;28;19921;-59
2023/06/14 12:09:37;;;;;;;;;;;23.40;40.50;;;;;;5026488;28;19921;-61
2023/06/14 12:12:05;;;;;;;;;;;23.40;40.50;;;;;;5006897;28;19921;-61
2023/06/14 12:14:32;;;;;;;;;;;23.40;40.50;;;;;;5006229;28;20387;-62
2023/06/14 12:17:06;;;;;;;;;;;23.40;40.50;;;;;;5008708;28;19969;-61
2023/06/14 12:19:33;;;;;;;;;;;23.40;40.50;;;;;;5006895;28;20013;-62
2023/06/14 12:22:00;;;;;;;;;;;23.40;40.50;;;;;;5006928;28;19991;-60
2023/06/14 12:24:28;;;;;;;;;;;23.40;40.50;;;;;;5012806;28;19922;-59
2023/06/14 12:26:55;;;;;;;;;;;23.40;40.50;;;;;;5012026;28;19933;-61
2023/06/14 12:29:22;;;;;;;;;;;23.40;40.60;;;;;;5009916;28;19941;-58
2023/06/14 12:31:49;;;;;;;;;;;23.40;40.50;;;;;;5013244;28;19971;-61
2023/06/14 12:34:17;;;;;;;;;;;23.40;40.50;;;;;;5006822;28;19995;-64
2023/06/14 12:36:46;;;;;;;;;;;23.40;40.40;;;;;;5012525;28;19948;-63
2023/06/14 12:39:13;;;;;;;;;;;23.50;40.50;;;;;;5007497;28;20284;-65
2023/06/14 12:41:41;;;;;;;;;;;23.40;40.40;;;;;;5010899;28;19971;-59
2023/06/14 12:44:07;;;;;;;;;;;23.40;40.40;;;;;;5020611;28;19971;-61
2023/06/14 12:46:34;;;;;;;;;;;23.50;40.50;;;;;;5030415;28;19968;-62
2023/06/14 12:49:01;;;;;;;;;;;23.40;40.40;;;;;;5009652;28;19976;-60
2023/06/14 12:51:29;;;;;;;;;;;23.50;40.40;;;;;;5009321;28;19934;-64
2023/06/14 12:53:56;;;;;;;;;;;23.50;40.40;;;;;;5005793;28;19925;-66
2023/06/14 12:56:22;;;;;;;;;;;23.50;40.40;;;;;;5010277;28;19979;-63
2023/06/14 12:58:49;;;;;;;;;;;23.50;40.40;;;;;;5013481;28;19929;-62
2023/06/14 13:01:16;;;;;;;;;;;23.50;40.40;;;;;;5011981;28;19921;-66
2023/06/14 13:03:43;;;;;;;;;;;23.50;40.40;;;;;;5007807;28;19925;-66
2023/06/14 13:06:09;;;;;;;;;;;23.50;40.40;;;;;;5021530;28;19926;-64
2023/06/14 13:08:38;;;;;;;;;;;23.50;40.40;;;;;;5007704;28;19921;-64
2023/06/14 13:11:05;;;;;;;;;;;23.50;40.40;;;;;;5006481;28;19928;-64
2023/06/14 13:13:32;;;;;;;;;;;23.50;40.40;;;;;;5008007;28;19921;-64
2023/06/14 13:15:59;;;;;;;;;;;23.50;40.30;;;;;;5011512;28;19975;-63
2023/06/14 13:18:25;;;;;;;;;;;23.50;40.30;;;;;;5011593;28;20019;-60
2023/06/14 13:20:52;;;;;;;;;;;23.50;40.30;;;;;;5005960;28;19921;-60
2023/06/14 13:23:19;;;;;;;;;;;23.50;40.20;;;;;;5007414;28;19929;-58
2023/06/14 13:25:49;;;;;;;;;;;23.50;40.30;;;;;;5015391;28;19921;-60
2023/06/14 13:28:16;;;;;;;;;;;23.50;40.20;;;;;;5012107;28;19921;-59
2023/06/14 13:30:42;;;;;;;;;;;23.50;40.10;;;;;;5014298;28;19921;-60
2023/06/14 13:33:09;;;;;;;;;;;23.50;40.10;;;;;;5006995;28;20011;-61
2023/06/14 13:35:36;;;;;;;;;;;23.50;40.10;;;;;;5013123;28;19922;-60
2023/06/14 13:38:03;;;;;;;;;;;23.50;40.10;;;;;;5024232;28;19925;-60
2023/06/14 13:40:30;;;;;;;;;;;23.50;40.10;;;;;;5011486;28;19967;-60
2023/06/14 13:42:58;;;;;;;;;;;23.50;40.10;;;;;;5011239;28;19928;-59
2023/06/14 13:45:25;;;;;;;;;;;23.50;40.00;;;;;;5009354;28;19921;-60
2023/06/14 13:47:52;;;;;;;;;;;23.50;39.90;;;;;;5018835;28;19921;-59
2023/06/14 13:50:19;;;;;;;;;;;23.50;39.90;;;;;;5009810;28;19940;-58
2023/06/14 13:52:46;;;;;;;;;;;23.50;39.90;;;;;;5008349;28;19921;-58
2023/06/14 13:55:13;;;;;;;;;;;23.40;39.80;;;;;;5010152;28;19928;-60
2023/06/14 13:57:40;;;;;;;;;;;23.50;39.90;;;;;;5008812;28;19922;-59
2023/06/14 14:00:10;;;;;;;;;;;23.50;39.80;;;;;;5008214;28;20375;-60
2023/06/14 14:02:36;;;;;;;;;;;23.50;39.80;;;;;;5010422;28;19921;-59
2023/06/14 14:05:03;;;;;;;;;;;23.40;39.70;;;;;;5005355;28;19925;-60
2023/06/14 14:07:30;;;;;;;;;;;23.50;39.60;;;;;;5012369;28;19926;-60
2023/06/14 14:09:58;;;;;;;;;;;23.50;39.60;;;;;;5013644;28;19921;-62
2023/06/14 14:12:25;;;;;;;;;;;23.50;39.60;;;;;;5013545;28;19921;-59
2023/06/14 14:14:52;;;;;;;;;;;23.40;39.60;;;;;;5001684;28;19928;-60
2023/06/14 14:17:20;;;;;;;;;;;23.50;39.60;;;;;;5015358;28;19925;-59